Time;durP1;ratioP1;P1;durP2;ratioP2;P2;SDS_P1;SDS_P2;PMS_P1;PMS_P2;Temp;Humidity;BMP_temperature;BMP_pressure;BME280_temperature;BME280_humidity;BME280_pressure;Samples;Min_cycle;Max_cycle;Signal;HPM_P1;HPM_P2
2023/01/21 00:01:47;;;;;;;0.10;0.10;;;;;;;8.75;60.79;102031.84;7361555;19;20014;-58
2023/01/21 00:04:13;;;;;;;0.00;0.00;;;;;;;8.76;60.68;102028.38;7348955;19;20007;-58
2023/01/21 00:06:38;;;;;;;0.10;0.10;;;;;;;8.76;60.67;102036.19;7358815;19;20018;-58
2023/01/21 00:09:04;;;;;;;0.00;0.00;;;;;;;8.77;60.60;102035.34;7355419;19;20669;-58
2023/01/21 00:11:29;;;;;;;0.00;0.00;;;;;;;8.76;60.57;102037.06;7361150;19;20043;-58
2023/01/21 00:13:57;;;;;;;0.00;0.00;;;;;;;8.78;60.31;102042.31;7361858;19;20097;-59
2023/01/21 00:16:22;;;;;;;0.10;0.10;;;;;;;8.76;60.42;102038.78;7359523;19;20018;-58
2023/01/21 00:18:47;;;;;;;0.00;0.00;;;;;;;8.79;60.78;102029.28;7357967;19;21329;-58
2023/01/21 00:21:13;;;;;;;0.00;0.00;;;;;;;8.79;60.89;102036.22;7361101;19;20014;-57
2023/01/21 00:23:38;;;;;;;0.08;0.08;;;;;;;8.79;60.56;102038.81;7361086;19;20015;-57
2023/01/21 00:26:06;;;;;;;0.00;0.00;;;;;;;8.68;61.08;102030.94;7358441;19;20013;-58
2023/01/21 00:28:33;;;;;;;0.00;0.00;;;;;;;8.80;60.86;102046.63;7356996;19;20056;-57
2023/01/21 00:31:01;;;;;;;0.00;0.00;;;;;;;8.81;60.90;102037.09;7360796;19;20021;-59
2023/01/21 00:33:27;;;;;;;0.00;0.00;;;;;;;8.79;61.01;102044.91;7361185;19;20018;-58
2023/01/21 00:36:05;;;;;;;0.00;0.00;;;;;;;8.82;60.86;102054.50;7360785;19;20030;-58
2023/01/21 00:38:31;;;;;;;0.00;0.00;;;;;;;8.81;60.88;102055.31;7358643;19;20014;-58
2023/01/21 00:41:16;;;;;;;0.10;0.10;;;;;;;8.68;60.59;102050.91;7358377;19;20026;-59
2023/01/21 00:43:42;;;;;;;0.08;0.08;;;;;;;8.79;61.48;102064.88;7360536;19;20645;-57
2023/01/21 00:46:08;;;;;;;0.00;0.00;;;;;;;8.80;61.33;102064.00;7357791;19;20011;-58
2023/01/21 00:48:34;;;;;;;0.00;0.00;;;;;;;8.81;61.35;102065.75;7358793;19;20014;-58
2023/01/21 00:50:59;;;;;;;0.00;0.00;;;;;;;8.81;61.37;102070.94;7357808;19;20021;-58
2023/01/21 00:53:26;;;;;;;0.00;0.00;;;;;;;8.82;61.94;102059.69;7359953;19;20868;-56
2023/01/21 00:55:52;;;;;;;0.00;0.00;;;;;;;8.83;61.49;102061.44;7355924;19;20018;-57
2023/01/21 00:58:17;;;;;;;0.00;0.00;;;;;;;8.76;61.85;102049.22;7361493;19;20043;-58
2023/01/21 01:00:43;;;;;;;0.00;0.00;;;;;;;8.84;61.34;102065.78;7358511;19;20050;-57
2023/01/21 01:03:08;;;;;;;0.10;0.10;;;;;;;8.84;61.21;102063.16;7359575;19;20018;-58
2023/01/21 01:05:34;;;;;;;0.00;0.00;;;;;;;8.86;61.19;102060.56;7360790;19;20010;-58
2023/01/21 01:07:59;;;;;;;0.00;0.00;;;;;;;8.85;61.53;102070.13;7357594;19;20010;-57
2023/01/21 01:10:25;;;;;;;0.10;0.10;;;;;;;8.84;61.16;102063.16;7357444;19;20086;-57
2023/01/21 01:12:50;;;;;;;0.00;0.00;;;;;;;8.84;61.37;102073.59;7358671;19;20014;-58
2023/01/21 01:15:15;;;;;;;0.00;0.00;;;;;;;8.83;61.35;102075.31;7359893;19;20027;-58
2023/01/21 01:17:41;;;;;;;0.00;0.00;;;;;;;8.83;61.33;102071.84;7357898;19;20631;-58
2023/01/21 01:20:07;;;;;;;0.00;0.00;;;;;;;8.83;61.38;102066.66;7358336;19;20014;-57
2023/01/21 01:22:33;;;;;;;0.00;0.00;;;;;;;8.81;61.45;102065.75;7358570;19;20011;-58
2023/01/21 01:24:58;;;;;;;0.00;0.00;;;;;;;8.82;61.57;102070.13;7358824;19;20046;-58
2023/01/21 01:27:24;;;;;;;0.00;0.00;;;;;;;8.80;61.41;102066.63;7358735;19;20025;-58
2023/01/21 01:29:49;;;;;;;0.00;0.00;;;;;;;8.81;61.44;102076.16;7357771;19;20848;-57
2023/01/21 01:32:14;;;;;;;0.00;0.00;;;;;;;8.81;61.52;102073.56;7356901;19;20018;-58
2023/01/21 01:34:40;;;;;;;0.00;0.00;;;;;;;8.72;61.12;102063.09;7356245;19;20010;-58
2023/01/21 01:37:05;;;;;;;0.00;0.00;;;;;;;8.79;61.50;102072.69;7356241;19;20621;-58
2023/01/21 01:39:31;;;;;;;0.00;0.00;;;;;;;8.78;61.12;102078.75;7354219;19;20007;-58
2023/01/21 01:41:57;;;;;;;0.10;0.10;;;;;;;8.77;61.27;102077.91;7358244;19;20014;-58
2023/01/21 01:44:58;;;;;;;0.00;0.00;;;;;;;8.78;60.94;102073.56;7360332;19;20656;-58
2023/01/21 01:47:49;;;;;;;0.00;0.00;;;;;;;8.77;60.99;102071.81;7255367;19;2004738;-57
2023/01/21 01:50:18;;;;;;;0.00;0.00;;;;;;;8.69;60.69;102063.06;7359480;19;20565;-57
2023/01/21 01:52:44;;;;;;;0.10;0.10;;;;;;;8.69;61.07;102070.88;7355428;19;20014;-58
2023/01/21 01:55:14;;;;;;;0.00;0.00;;;;;;;8.73;60.94;102080.47;7359136;19;20062;-58
2023/01/21 01:57:44;;;;;;;0.05;0.05;;;;;;;8.72;60.78;102073.53;7356643;19;20103;-57
2023/01/21 02:00:10;;;;;;;0.10;0.10;;;;;;;8.71;61.12;102066.53;7357199;19;20015;-58
2023/01/21 02:02:39;;;;;;;0.00;0.00;;;;;;;8.71;60.60;102066.53;7357467;19;20014;-58
2023/01/21 02:05:07;;;;;;;0.00;0.00;;;;;;;8.70;60.68;102076.09;7356565;19;20530;-58
2023/01/21 02:07:38;;;;;;;0.00;0.00;;;;;;;8.72;60.57;102076.13;7358207;19;20038;-58
2023/01/21 02:10:18;;;;;;;0.00;0.00;;;;;;;8.72;60.87;102078.72;7356588;19;20545;-58
2023/01/21 02:12:44;;;;;;;0.00;0.00;;;;;;;8.69;61.00;102084.78;7357696;19;20431;-58
2023/01/21 02:15:09;;;;;;;0.00;0.00;;;;;;;8.69;60.58;102089.13;7354156;19;20011;-59
2023/01/21 02:17:50;;;;;;;0.00;0.00;;;;;;;8.72;60.59;102095.22;7357417;19;20006;-57
2023/01/21 02:20:27;;;;;;;0.00;0.00;;;;;;;8.71;60.89;102092.59;7357648;19;20017;-58
2023/01/21 02:23:02;;;;;;;0.08;0.08;;;;;;;8.70;60.86;102093.44;7358622;19;21230;-58
2023/01/21 02:25:47;;;;;;;0.00;0.00;;;;;;;8.72;60.43;102099.56;7356035;19;20020;-59
2023/01/21 02:28:34;;;;;;;0.00;0.00;;;;;;;8.72;60.62;102104.78;7355273;19;20014;-57
2023/01/21 02:30:59;;;;;;;0.00;0.00;;;;;;;8.70;60.61;102107.34;7353787;19;20032;-58
2023/01/21 02:33:55;;;;;;;0.00;0.00;;;;;;;8.71;60.54;102103.00;7359133;19;20874;-58
2023/01/21 02:36:57;;;;;;;0.00;0.00;;;;;;;8.71;60.29;102108.22;7254404;19;2004152;-58
2023/01/21 02:39:38;;;;;;;0.00;0.00;;;;;;;8.71;60.63;102108.22;7257736;19;2004261;-58
2023/01/21 02:42:16;;;;;;;0.00;0.00;;;;;;;8.68;60.74;102108.22;7359681;19;20025;-57
2023/01/21 02:44:53;;;;;;;0.00;0.00;;;;;;;8.69;60.35;102104.75;7357998;19;20010;-57
2023/01/21 02:47:23;;;;;;;0.00;0.00;;;;;;;8.66;60.42;102109.91;7360188;19;20002;-56
2023/01/21 02:49:57;;;;;;;0.00;0.00;;;;;;;8.69;60.68;102109.94;7357429;19;20015;-58
2023/01/21 02:52:24;;;;;;;0.10;0.10;;;;;;;8.67;61.05;102119.47;7365996;19;20015;-57
2023/01/21 02:54:58;;;;;;;0.00;0.00;;;;;;;8.70;61.01;102119.50;7363343;19;20032;-58
2023/01/21 02:57:35;;;;;;;0.00;0.00;;;;;;;8.67;61.07;102122.06;7365563;19;20010;-58
2023/01/21 03:00:08;;;;;;;0.00;0.00;;;;;;;8.70;60.85;102122.97;7357728;19;20010;-57
2023/01/21 03:03:02;;;;;;;0.00;0.00;;;;;;;8.70;60.80;102116.88;7363173;19;20010;-58
2023/01/21 03:05:27;;;;;;;0.00;0.00;;;;;;;8.71;61.36;102124.72;7260198;19;2004554;-58
2023/01/21 03:08:03;;;;;;;0.00;0.00;;;;;;;8.74;60.73;102129.94;7365481;19;20075;-58
2023/01/21 03:10:38;;;;;;;0.00;0.00;;;;;;;8.73;61.12;102127.34;7362726;19;20010;-57
2023/01/21 03:16:55;;;;;;;0.00;0.00;;;;;;;8.77;61.21;102126.50;7362235;19;20006;-58
2023/01/21 03:18:51;;;;;;;0.00;0.00;;;;;;;8.76;61.71;102124.75;7359664;19;20459;-58
2023/01/21 03:21:23;;;;;;;0.10;0.10;;;;;;;8.77;61.45;102134.31;7360883;19;20466;-58
2023/01/21 03:23:51;;;;;;;0.00;0.00;;;;;;;8.77;61.53;102140.41;7364184;19;20014;-57
2023/01/21 03:26:19;;;;;;;;;;;;;;;8.82;61.02;102143.06;7363957;19;20125;-57
2023/01/21 03:28:49;;;;;;;0.10;0.10;;;;;;;8.80;61.76;102144.75;7363543;19;19931;-57
2023/01/21 03:31:22;;;;;;;0.00;0.00;;;;;;;8.81;61.54;102147.34;7362440;19;20006;-58
2023/01/21 03:33:51;;;;;;;0.00;0.00;;;;;;;8.51;61.89;102101.09;7364093;19;20819;-58
2023/01/21 03:36:31;;;;;;;0.00;0.00;;;;;;;8.82;61.46;102148.25;7362978;19;20392;-59
2023/01/21 03:38:58;;;;;;;0.00;0.00;;;;;;;8.72;61.79;102141.22;7358227;19;20128;-58
2023/01/21 03:41:32;;;;;;;0.00;0.00;;;;;;;8.83;61.96;102155.22;7360159;19;20103;-57
2023/01/21 03:43:58;;;;;;;0.00;0.00;;;;;;;8.78;62.06;102141.28;7363505;19;20014;-58
2023/01/21 03:46:33;;;;;;;0.00;0.00;;;;;;;8.84;62.06;102154.34;7358469;19;20426;-57
2023/01/21 03:49:07;;;;;;;0.00;0.00;;;;;;;8.87;61.60;102151.78;7364370;19;20578;-57
2023/01/21 03:51:37;;;;;;;0.10;0.10;;;;;;;8.86;62.21;102150.00;7358401;19;20054;-58
2023/01/21 03:54:03;;;;;;;0.10;0.10;;;;;;;8.86;62.10;102144.78;7361712;19;20018;-57
2023/01/21 03:56:29;;;;;;;0.00;0.00;;;;;;;8.76;61.80;102130.81;7363758;19;20609;-58
2023/01/21 03:58:54;;;;;;;0.00;0.00;;;;;;;8.86;62.28;102146.53;7359832;19;20430;-58
2023/01/21 04:01:20;;;;;;;0.00;0.00;;;;;;;8.88;62.35;102144.81;7361798;19;20015;-57
2023/01/21 04:03:45;;;;;;;0.00;0.00;;;;;;;8.79;62.02;102127.38;7350897;19;20015;-58
2023/01/21 04:06:17;;;;;;;0.00;0.00;;;;;;;8.92;62.14;102147.47;7354917;19;20041;-58
2023/01/21 04:08:42;;;;;;;0.00;0.00;;;;;;;8.91;62.25;102143.09;7362826;19;20049;-57
2023/01/21 04:11:07;;;;;;;0.00;0.00;;;;;;;8.91;62.26;102145.69;7362938;19;21060;-59
2023/01/21 04:13:33;;;;;;;0.10;0.10;;;;;;;8.91;61.84;102148.31;7360595;19;20006;-57
2023/01/21 04:15:58;;;;;;;0.00;0.00;;;;;;;8.91;61.99;102143.09;7363848;19;20014;-58
2023/01/21 04:18:24;;;;;;;0.00;0.00;;;;;;;8.91;62.01;102148.31;7361355;19;20018;-58
2023/01/21 04:20:49;;;;;;;0.00;0.00;;;;;;;8.90;61.98;102151.78;7348612;19;20334;-57
2023/01/21 04:23:14;;;;;;;0.00;0.00;;;;;;;8.91;62.08;102153.50;7362897;19;20010;-58
2023/01/21 04:25:40;;;;;;;0.00;0.00;;;;;;;8.90;62.03;102141.34;7359886;19;20013;-57
2023/01/21 04:28:05;;;;;;;0.00;0.00;;;;;;;8.91;61.99;102140.47;7364247;19;20014;-58
2023/01/21 04:30:31;;;;;;;0.00;0.00;;;;;;;8.92;61.89;102143.97;7358925;19;20094;-58
2023/01/21 04:32:56;;;;;;;0.00;0.00;;;;;;;8.88;62.00;102135.28;7361123;19;20045;-58
2023/01/21 04:35:21;;;;;;;0.00;0.00;;;;;;;8.93;62.05;102135.31;7361611;19;20755;-56
2023/01/21 04:37:47;;;;;;;0.00;0.00;;;;;;;8.90;62.39;102130.94;7363633;19;20007;-57
2023/01/21 04:40:12;;;;;;;0.00;0.00;;;;;;;8.93;62.26;102146.59;7357391;19;20492;-58
2023/01/21 04:42:40;;;;;;;0.08;0.08;;;;;;;8.95;62.27;102139.66;7364174;19;20086;-58
2023/01/21 04:45:06;;;;;;;0.00;0.00;;;;;;;8.94;62.27;102145.72;7359491;19;20011;-57
2023/01/21 04:47:32;;;;;;;0.00;0.00;;;;;;;8.94;62.49;102137.03;7361876;19;20479;-58
2023/01/21 04:49:57;;;;;;;0.00;0.00;;;;;;;8.94;62.08;102134.44;7358395;19;20078;-57
2023/01/21 04:52:23;;;;;;;0.00;0.00;;;;;;;8.93;62.00;102144.00;7361150;19;20023;-57
2023/01/21 04:54:48;;;;;;;0.00;0.00;;;;;;;8.94;62.03;102137.91;7356770;19;20006;-57
2023/01/21 04:57:13;;;;;;;0.00;0.00;;;;;;;8.95;61.85;102136.19;7362431;19;20094;-58
2023/01/21 04:59:39;;;;;;;0.00;0.00;;;;;;;8.94;62.33;102143.13;7362272;19;20017;-57
2023/01/21 05:02:04;;;;;;;0.00;0.00;;;;;;;8.94;61.97;102140.53;7361743;19;20526;-58
2023/01/21 05:04:31;;;;;;;0.10;0.10;;;;;;;8.89;62.20;102128.31;7357629;19;20014;-58
2023/01/21 05:06:57;;;;;;;0.00;0.00;;;;;;;8.94;62.34;102147.47;7364104;19;20010;-57
2023/01/21 05:09:23;;;;;;;0.00;0.00;;;;;;;8.92;61.83;102134.44;7360776;19;20070;-58
2023/01/21 05:11:48;;;;;;;0.10;0.10;;;;;;;8.94;62.23;102137.91;7361943;19;20007;-56
2023/01/21 05:14:13;;;;;;;0.10;0.10;;;;;;;8.95;62.07;102146.59;7361798;19;20017;-58
2023/01/21 05:16:39;;;;;;;0.00;0.00;;;;;;;8.96;61.94;102148.34;7360783;19;20403;-58
2023/01/21 05:19:04;;;;;;;0.00;0.00;;;;;;;8.95;62.35;102155.28;7360148;19;20017;-58
2023/01/21 05:21:30;;;;;;;0.00;0.00;;;;;;;8.96;61.82;102151.81;7358836;19;20466;-58
2023/01/21 05:23:56;;;;;;;0.00;0.00;;;;;;;8.94;62.27;102145.72;7362655;19;20014;-58
2023/01/21 05:26:21;;;;;;;0.10;0.10;;;;;;;8.98;61.65;102146.63;7360723;19;20641;-58
2023/01/21 05:28:47;;;;;;;0.00;0.00;;;;;;;8.99;61.54;102145.75;7361180;19;20017;-57
2023/01/21 05:31:12;;;;;;;0.00;0.00;;;;;;;8.99;61.63;102143.16;7361624;19;20407;-57
2023/01/21 05:33:38;;;;;;;0.00;0.00;;;;;;;8.98;62.00;102150.09;7358477;19;20013;-58
2023/01/21 05:36:03;;;;;;;0.00;0.00;;;;;;;8.98;61.83;102142.28;7357071;19;20007;-56
2023/01/21 05:38:29;;;;;;;0.00;0.00;;;;;;;8.98;62.08;102139.69;7361183;19;20376;-58
2023/01/21 05:41:02;;;;;;;0.00;0.00;;;;;;;9.00;61.89;102143.16;7357821;19;20474;-58
2023/01/21 05:43:28;;;;;;;0.00;0.00;;;;;;;8.98;61.64;102152.72;7360512;19;20014;-58
2023/01/21 05:45:53;;;;;;;0.00;0.00;;;;;;;8.97;62.09;102150.97;7361611;19;20018;-57
2023/01/21 05:48:19;;;;;;;0.00;0.00;;;;;;;8.97;62.10;102148.38;7361295;19;20014;-58
2023/01/21 05:50:44;;;;;;;0.10;0.10;;;;;;;8.89;62.36;102134.41;7361116;19;20010;-58
2023/01/21 05:53:10;;;;;;;0.00;0.00;;;;;;;8.96;62.13;102146.59;7356112;19;20034;-58
2023/01/21 05:55:36;;;;;;;0.00;0.00;;;;;;;8.97;61.69;102152.69;7362001;19;20018;-56
2023/01/21 05:58:01;;;;;;;0.00;0.00;;;;;;;8.96;61.78;102151.81;7359360;19;20013;-58
2023/01/21 06:00:27;;;;;;;0.00;0.00;;;;;;;8.96;61.95;102146.59;7360332;19;20677;-58
2023/01/21 06:02:52;;;;;;;0.05;0.05;;;;;;;8.95;61.56;102144.88;7357003;19;20002;-58
2023/01/21 06:05:18;;;;;;;0.00;0.00;;;;;;;8.96;61.76;102145.72;7358795;19;20132;-57
2023/01/21 06:07:43;;;;;;;0.00;0.00;;;;;;;8.95;61.80;102144.00;7360571;19;20014;-58
2023/01/21 06:10:09;;;;;;;0.00;0.00;;;;;;;8.95;61.61;102144.00;7354952;19;20882;-58
2023/01/21 06:12:35;;;;;;;0.00;0.00;;;;;;;8.95;61.54;102152.69;7359181;19;20403;-58
2023/01/21 06:15:00;;;;;;;0.10;0.10;;;;;;;8.95;61.73;102146.59;7359289;19;20019;-58
2023/01/21 06:17:25;;;;;;;0.00;0.00;;;;;;;8.93;61.87;102149.22;7360237;19;20015;-58
2023/01/21 06:19:51;;;;;;;0.00;0.00;;;;;;;8.93;62.07;102157.03;7359648;19;20716;-58
2023/01/21 06:22:17;;;;;;;0.00;0.00;;;;;;;8.94;61.87;102163.97;7357964;19;20633;-58
2023/01/21 06:24:43;;;;;;;0.08;0.08;;;;;;;8.94;61.57;102171.78;7357036;19;20019;-58
2023/01/21 06:27:09;;;;;;;0.00;0.00;;;;;;;8.94;61.46;102174.38;7364528;19;20782;-58
2023/01/21 06:29:34;;;;;;;0.00;0.00;;;;;;;8.95;61.51;102175.25;7363494;19;20113;-58
2023/01/21 06:32:00;;;;;;;0.00;0.00;;;;;;;8.91;61.62;102169.13;7367352;19;20010;-58
2023/01/21 06:34:25;;;;;;;0.00;0.00;;;;;;;8.94;61.57;102178.72;7365162;19;20010;-58
2023/01/21 06:36:50;;;;;;;0.00;0.00;;;;;;;8.94;61.58;102173.53;7366080;19;20007;-58
2023/01/21 06:39:16;;;;;;;0.10;0.10;;;;;;;8.95;61.78;102176.13;7363821;19;20047;-57
2023/01/21 06:41:41;;;;;;;0.05;0.05;;;;;;;8.95;61.93;102176.13;7366702;19;20465;-58
2023/01/21 06:44:07;;;;;;;0.10;0.10;;;;;;;8.92;61.63;102176.13;7362901;19;20014;-57
2023/01/21 06:46:32;;;;;;;0.00;0.00;;;;;;;8.95;61.93;102181.34;7366490;19;20027;-58
2023/01/21 06:48:58;;;;;;;0.00;0.00;;;;;;;8.93;61.69;102177.88;7363490;19;20022;-57
2023/01/21 06:51:24;;;;;;;0.10;0.10;;;;;;;8.94;61.69;102177.00;7364848;19;20011;-58
2023/01/21 06:53:49;;;;;;;0.10;0.10;;;;;;;8.96;61.79;102184.81;7363971;19;20039;-58
2023/01/21 06:56:14;;;;;;;0.00;0.00;;;;;;;8.84;61.64;102163.03;7364465;19;20018;-58
2023/01/21 06:58:40;;;;;;;0.10;0.10;;;;;;;8.97;61.88;102189.16;7356473;19;20011;-58
2023/01/21 07:01:05;;;;;;;0.00;0.00;;;;;;;8.97;61.85;102184.84;7364964;19;20014;-58
2023/01/21 07:03:31;;;;;;;0.00;0.00;;;;;;;8.96;62.13;102183.06;7351197;19;20462;-58
2023/01/21 07:05:56;;;;;;;0.00;0.00;;;;;;;8.98;61.77;102191.78;7358501;19;20094;-57
2023/01/21 07:08:21;;;;;;;0.03;0.03;;;;;;;8.99;61.74;102196.13;7361304;19;20799;-57
2023/01/21 07:10:47;;;;;;;0.00;0.00;;;;;;;8.88;62.09;102179.56;7364679;19;20018;-57
2023/01/21 07:13:12;;;;;;;0.00;0.00;;;;;;;8.99;62.21;102201.34;7360403;19;20035;-58
2023/01/21 07:15:38;;;;;;;0.00;0.00;;;;;;;8.92;61.90;102189.16;7363134;19;20014;-58
2023/01/21 07:18:03;;;;;;;0.00;0.00;;;;;;;9.00;62.31;102195.28;7362601;19;20035;-58
2023/01/21 07:20:29;;;;;;;0.00;0.00;;;;;;;8.89;62.49;102175.22;7362805;19;20026;-58
2023/01/21 07:22:54;;;;;;;0.00;0.00;;;;;;;8.99;62.07;102190.94;7358554;19;20030;-58
2023/01/21 07:25:20;;;;;;;0.00;0.00;;;;;;;9.00;62.22;102194.41;7357284;19;20013;-57
2023/01/21 07:27:45;;;;;;;0.00;0.00;;;;;;;9.00;62.08;102190.06;7355765;19;20015;-58
2023/01/21 07:30:19;;;;;;;0.00;0.00;;;;;;;9.02;62.45;102193.56;7364352;19;20010;-58
2023/01/21 07:32:45;;;;;;;0.00;0.00;;;;;;;9.00;62.33;102187.47;7360226;19;20072;-58
2023/01/21 07:35:11;;;;;;;0.00;0.00;;;;;;;8.99;62.59;102196.13;7355794;19;20070;-57
2023/01/21 07:37:36;;;;;;;0.00;0.00;;;;;;;8.87;62.46;102171.72;7363417;19;20571;-57
2023/01/21 07:40:02;;;;;;;0.03;0.03;;;;;;;8.96;62.77;102193.50;7358174;19;20026;-58
2023/01/21 07:42:27;;;;;;;0.00;0.00;;;;;;;8.99;62.36;102193.53;7359215;19;20045;-57
2023/01/21 07:44:53;;;;;;;0.00;0.00;;;;;;;8.99;63.08;102193.53;7359200;19;20010;-57
2023/01/21 07:47:18;;;;;;;0.00;0.00;;;;;;;8.98;63.08;102190.94;7362224;19;20018;-58
2023/01/21 07:49:43;;;;;;;0.00;0.00;;;;;;;9.00;62.75;102195.28;7361452;19;20353;-58
2023/01/21 07:52:09;;;;;;;0.00;0.00;;;;;;;8.98;63.24;102199.63;7361310;19;20013;-58
2023/01/21 07:54:34;;;;;;;0.00;0.00;;;;;;;8.99;63.12;102198.75;7359208;19;20035;-57
2023/01/21 07:57:00;;;;;;;0.10;0.10;;;;;;;9.00;63.30;102200.50;7362067;19;20015;-56
2023/01/21 07:59:25;;;;;;;0.00;0.00;;;;;;;9.00;63.31;102200.50;7359934;19;20838;-57
2023/01/21 08:01:50;;;;;;;0.00;0.00;;;;;;;9.00;63.46;102200.50;7358149;19;20021;-58
2023/01/21 08:04:16;;;;;;;0.10;0.10;;;;;;;9.02;63.50;102213.50;7353664;19;20021;-58
2023/01/21 08:06:41;;;;;;;0.00;0.00;;;;;;;9.00;63.50;102202.22;7356625;19;20021;-58
2023/01/21 08:09:08;;;;;;;0.00;0.00;;;;;;;8.99;63.50;102209.16;7360476;19;20014;-58
2023/01/21 08:11:34;;;;;;;0.00;0.00;;;;;;;9.02;63.71;102214.41;7343936;19;20477;-57
2023/01/21 08:13:59;;;;;;;0.00;0.00;;;;;;;9.02;63.36;102209.22;7358443;19;20017;-59
2023/01/21 08:16:25;;;;;;;0.00;0.00;;;;;;;9.03;63.36;102212.69;7356622;19;20098;-58
2023/01/21 08:18:50;;;;;;;0.00;0.00;;;;;;;9.04;63.40;102222.25;7357374;19;20020;-57
2023/01/21 08:21:15;;;;;;;0.00;0.00;;;;;;;9.03;63.72;102217.91;7210275;19;2862512;-57
2023/01/21 08:23:41;;;;;;;0.00;0.00;;;;;;;9.03;63.70;102221.38;7361780;19;20420;-58
2023/01/21 08:26:07;;;;;;;0.00;0.00;;;;;;;9.05;63.79;102224.84;7359495;19;20022;-57
2023/01/21 08:28:32;;;;;;;0.00;0.00;;;;;;;9.06;64.11;102226.59;7361372;19;20081;-58
2023/01/21 08:31:10;;;;;;;0.00;0.00;;;;;;;9.09;63.55;102226.63;7356771;19;20461;-58
2023/01/21 08:33:36;;;;;;;0.00;0.00;;;;;;;8.99;63.95;102209.16;7361519;19;20017;-58
2023/01/21 08:36:04;;;;;;;0.00;0.00;;;;;;;9.09;63.89;102224.00;7357678;19;20006;-58
2023/01/21 08:38:30;;;;;;;0.00;0.00;;;;;;;9.03;63.49;102220.50;7364402;19;20006;-57
2023/01/21 08:40:59;;;;;;;0.00;0.00;;;;;;;9.04;63.53;102217.91;7361037;19;25437;-57
2023/01/21 08:43:25;;;;;;;0.00;0.00;;;;;;;9.12;63.79;102224.88;7358622;19;20131;-58
2023/01/21 08:45:55;;;;;;;0.00;0.00;;;;;;;9.14;63.88;102236.22;7361100;19;20060;-55
2023/01/21 08:48:20;;;;;;;0.00;0.00;;;;;;;9.12;63.84;102236.19;7360293;19;20015;-58
2023/01/21 08:50:46;;;;;;;0.00;0.00;;;;;;;9.13;64.03;102239.69;7357813;19;20022;-58
2023/01/21 08:53:11;;;;;;;0.00;0.00;;;;;;;9.13;63.98;102237.09;7356738;19;21139;-58
2023/01/21 08:55:36;;;;;;;0.08;0.08;;;;;;;9.14;64.34;102238.81;7361412;19;20855;-58
2023/01/21 08:58:02;;;;;;;0.08;0.08;;;;;;;9.15;63.94;102245.78;7357350;19;20044;-57
2023/01/21 09:00:27;;;;;;;0.08;0.08;;;;;;;9.16;64.20;102242.31;7356072;19;20029;-57
2023/01/21 09:02:53;;;;;;;0.00;0.00;;;;;;;9.17;64.10;102246.66;7361628;19;20357;-58
2023/01/21 09:05:19;;;;;;;0.00;0.00;;;;;;;9.15;63.70;102240.56;7356288;19;20006;-57
2023/01/21 09:07:44;;;;;;;0.00;0.00;;;;;;;9.15;63.96;102243.16;7355947;19;20742;-58
2023/01/21 09:10:10;;;;;;;0.03;0.03;;;;;;;9.16;63.89;102244.91;7358006;19;20767;-58
2023/01/21 09:12:37;;;;;;;0.00;0.00;;;;;;;9.17;64.22;102238.81;7359014;19;20002;-58
2023/01/21 09:15:03;;;;;;;0.00;0.00;;;;;;;9.17;64.06;102239.69;7359943;19;20010;-58
2023/01/21 09:17:29;;;;;;;0.00;0.00;;;;;;;9.16;63.98;102237.09;7361476;19;20034;-58
2023/01/21 09:19:54;;;;;;;0.00;0.00;;;;;;;9.18;64.14;102235.38;7356548;19;20018;-57
2023/01/21 09:22:20;;;;;;;0.00;0.00;;;;;;;9.19;64.25;102238.00;7359842;19;20042;-58
2023/01/21 09:24:45;;;;;;;0.00;0.00;;;;;;;9.20;63.93;102241.47;7358873;19;20812;-58
2023/01/21 09:27:10;;;;;;;0.00;0.00;;;;;;;9.21;64.08;102238.00;7360548;19;20006;-58
2023/01/21 09:29:36;;;;;;;0.00;0.00;;;;;;;9.21;63.96;102231.03;7359255;19;20014;-58
2023/01/21 09:32:02;;;;;;;0.08;0.08;;;;;;;9.23;64.04;102239.78;7361662;19;20048;-58
2023/01/21 09:34:27;;;;;;;0.10;0.10;;;;;;;9.23;63.95;102228.47;7357093;19;20086;-58
2023/01/21 09:36:53;;;;;;;0.00;0.00;;;;;;;9.20;64.23;102231.91;7356474;19;20017;-58
2023/01/21 09:39:19;;;;;;;0.00;0.00;;;;;;;9.26;64.18;102239.78;7357719;19;20017;-57
2023/01/21 09:41:50;;;;;;;0.00;0.00;;;;;;;9.29;64.43;102239.81;7358360;19;20048;-58
2023/01/21 09:44:33;;;;;;;0.00;0.00;;;;;;;9.29;64.05;102233.72;7352987;19;20110;-58
2023/01/21 09:47:34;;;;;;;0.00;0.00;;;;;;;9.34;63.87;102243.31;7354587;19;20007;-58
2023/01/21 09:50:21;;;;;;;0.00;0.00;;;;;;;9.36;63.58;102254.63;7253628;19;2004547;-57
2023/01/21 09:53:02;;;;;;;0.00;0.00;;;;;;;9.34;63.87;102252.88;7352246;19;20002;-58
2023/01/21 09:55:46;;;;;;;0.10;0.10;;;;;;;9.27;63.62;102238.03;7351069;19;20093;-58
2023/01/21 09:58:20;;;;;;;0.00;0.00;;;;;;;9.38;64.31;102259.88;7348181;19;20010;-57
2023/01/21 10:01:09;;;;;;;0.10;0.10;;;;;;;9.40;63.90;102258.13;7351428;19;20014;-57
2023/01/21 10:03:46;;;;;;;0.10;0.10;;;;;;;9.44;63.88;102259.03;7356446;19;20036;-58
2023/01/21 10:06:27;;;;;;;0.00;0.00;;;;;;;9.43;63.79;102259.88;7353248;19;20003;-58
2023/01/21 10:09:17;;;;;;;0.00;0.00;;;;;;;9.44;64.12;102257.28;7358166;19;20011;-57
2023/01/21 10:11:51;;;;;;;0.00;0.00;;;;;;;9.46;64.10;102257.28;7357449;19;20018;-58
2023/01/21 10:14:25;;;;;;;0.00;0.00;;;;;;;9.48;63.84;102256.47;7358527;19;20018;-58
2023/01/21 10:17:28;;;;;;;0.00;0.00;;;;;;;9.50;64.03;102253.84;7358389;19;20421;-58
2023/01/21 10:20:12;;;;;;;0.10;0.10;;;;;;;9.52;63.89;102265.16;7255308;19;2004525;-58
2023/01/21 10:22:44;;;;;;;0.00;0.00;;;;;;;9.53;63.88;102261.69;7342629;19;20706;-57
2023/01/21 10:25:26;;;;;;;0.03;0.03;;;;;;;9.57;63.95;102266.94;7357426;19;20731;-58
2023/01/21 10:27:54;;;;;;;0.00;0.00;;;;;;;9.56;64.40;102265.19;7359258;19;20014;-57
2023/01/21 10:30:23;;;;;;;0.00;0.00;;;;;;;9.59;64.20;102267.81;7358665;19;20024;-58
2023/01/21 10:32:51;;;;;;;0.00;0.00;;;;;;;9.60;64.19;102266.97;7356696;19;20033;-55
2023/01/21 10:35:18;;;;;;;0.00;0.00;;;;;;;9.62;64.22;102262.63;7358350;19;20644;-58
2023/01/21 10:38:05;;;;;;;0.00;0.00;;;;;;;9.58;63.88;102245.22;7355826;19;20043;-59
2023/01/21 10:40:43;;;;;;;0.05;0.05;;;;;;;9.70;64.07;102256.59;7353639;19;20850;-58
2023/01/21 10:43:37;;;;;;;0.05;0.05;;;;;;;9.73;63.92;102265.31;7354623;19;20099;-58
2023/01/21 10:46:32;;;;;;;0.10;0.10;;;;;;;9.76;63.76;102267.06;7256408;19;2004690;-58
2023/01/21 10:49:22;;;;;;;0.10;0.10;;;;;;;9.74;63.54;102268.78;7251978;19;2004496;-56
2023/01/21 10:52:03;;;;;;;0.00;0.00;;;;;;;9.78;63.42;102270.53;7357825;19;20060;-58
2023/01/21 10:54:46;;;;;;;0.10;0.10;;;;;;;9.79;63.64;102272.31;7357072;19;20017;-58
2023/01/21 10:57:35;;;;;;;0.00;0.00;;;;;;;9.80;63.54;102274.03;7358609;19;20750;-58
2023/01/21 11:00:05;;;;;;;0.00;0.00;;;;;;;9.76;63.83;102267.06;7345738;19;20045;-58
2023/01/21 11:02:32;;;;;;;0.00;0.00;;;;;;;9.82;63.45;102277.50;7354044;19;20011;-58
2023/01/21 11:05:01;;;;;;;0.00;0.00;;;;;;;9.85;63.53;102282.75;7353094;19;20014;-58
2023/01/21 11:07:31;;;;;;;0.00;0.00;;;;;;;9.86;63.27;102276.66;7359789;19;20449;-57
2023/01/21 11:09:59;;;;;;;0.00;0.00;;;;;;;9.86;63.40;102268.84;7353985;19;20018;-58
2023/01/21 11:12:25;;;;;;;0.05;0.05;;;;;;;9.88;63.26;102275.84;7363157;19;20022;-58
2023/01/21 11:14:59;;;;;;;0.00;0.00;;;;;;;9.91;63.37;102274.97;7361860;19;20010;-58
2023/01/21 11:17:34;;;;;;;0.00;0.00;;;;;;;9.91;63.58;102280.19;7365323;19;20468;-58
2023/01/21 11:20:03;;;;;;;0.00;0.00;;;;;;;9.90;63.34;102278.44;7364285;19;20479;-58
2023/01/21 11:22:31;;;;;;;0.10;0.10;;;;;;;9.90;63.54;102281.06;7365539;19;20773;-58
2023/01/21 11:24:57;;;;;;;0.00;0.00;;;;;;;9.91;63.03;102272.34;7365928;19;22307;-58
2023/01/21 11:27:38;;;;;;;0.00;0.00;;;;;;;9.96;63.12;102270.63;7366896;19;20011;-58
2023/01/21 11:30:05;;;;;;;0.00;0.00;;;;;;;9.94;63.24;102266.28;7365846;19;20690;-58
2023/01/21 11:32:31;;;;;;;0.00;0.00;;;;;;;9.95;63.72;102262.81;7364048;19;20776;-58
2023/01/21 11:35:08;;;;;;;0.00;0.00;;;;;;;9.88;63.15;102241.00;7366754;19;20031;-58
2023/01/21 11:37:36;;;;;;;0.00;0.00;;;;;;;9.98;63.77;102262.81;7365680;19;20015;-57
2023/01/21 11:40:24;;;;;;;0.10;0.10;;;;;;;10.03;63.17;102256.75;7364014;19;20754;-57
2023/01/21 11:42:55;;;;;;;0.00;0.00;;;;;;;10.03;63.51;102246.31;7358812;19;20039;-57
2023/01/21 11:45:38;;;;;;;0.05;0.05;;;;;;;10.06;63.31;102248.06;7363123;19;20014;-57
2023/01/21 11:48:18;;;;;;;0.00;0.00;;;;;;;10.07;63.08;102253.28;7364617;19;20021;-58